sensor_id;sensor_type;location;lat;lon;timestamp;pressure;altitude;pressure_sealevel;temperature;humidity
35553;BME280;21656;46.054;13.614;2023-03-14T06:56:59;99597.19;;;9.90;100.00
35553;BME280;21656;46.054;13.614;2023-03-14T06:59:24;99596.94;;;9.93;100.00
35553;BME280;21656;46.054;13.614;2023-03-14T07:01:50;99602.31;;;9.93;100.00
35553;BME280;21656;46.054;13.614;2023-03-14T07:04:16;99604.00;;;9.94;100.00
35553;BME280;21656;46.054;13.614;2023-03-14T07:06:41;99599.75;;;9.91;100.00
35553;BME280;21656;46.054;13.614;2023-03-14T07:09:09;99590.97;;;9.89;100.00
35553;BME280;21656;46.054;13.614;2023-03-14T07:11:34;99599.47;;;9.94;100.00
35553;BME280;21656;46.054;13.614;2023-03-14T07:14:00;99598.94;;;10.01;100.00
35553;BME280;21656;46.054;13.614;2023-03-14T07:16:25;99588.44;;;9.97;100.00
35553;BME280;21656;46.054;13.614;2023-03-14T07:18:53;99591.00;;;9.99;100.00
35553;BME280;21656;46.054;13.614;2023-03-14T07:21:18;99581.38;;;10.06;100.00
35553;BME280;21656;46.054;13.614;2023-03-14T07:23:44;99582.38;;;10.05;100.00
35553;BME280;21656;46.054;13.614;2023-03-14T07:26:09;99580.09;;;10.01;100.00
35553;BME280;21656;46.054;13.614;2023-03-14T07:28:34;99564.38;;;10.06;100.00
35553;BME280;21656;46.054;13.614;2023-03-14T07:30:59;99565.53;;;10.03;100.00
35553;BME280;21656;46.054;13.614;2023-03-14T07:33:25;99570.19;;;10.01;100.00
35553;BME280;21656;46.054;13.614;2023-03-14T07:35:50;99563.09;;;10.00;100.00
35553;BME280;21656;46.054;13.614;2023-03-14T07:38:15;99567.06;;;10.06;100.00
35553;BME280;21656;46.054;13.614;2023-03-14T07:40:41;99554.06;;;10.11;100.00
35553;BME280;21656;46.054;13.614;2023-03-14T07:43:06;99547.53;;;10.13;100.00
35553;BME280;21656;46.054;13.614;2023-03-14T07:45:31;99539.31;;;10.25;100.00
35553;BME280;21656;46.054;13.614;2023-03-14T07:47:56;99536.19;;;10.19;100.00
35553;BME280;21656;46.054;13.614;2023-03-14T07:50:22;99534.81;;;10.15;100.00
35553;BME280;21656;46.054;13.614;2023-03-14T07:52:47;99506.47;;;10.11;100.00
35553;BME280;21656;46.054;13.614;2023-03-14T07:55:14;99502.78;;;10.12;100.00
35553;BME280;21656;46.054;13.614;2023-03-14T07:57:39;99512.16;;;10.08;100.00
35553;BME280;21656;46.054;13.614;2023-03-14T08:00:04;99523.63;;;10.10;100.00
35553;BME280;21656;46.054;13.614;2023-03-14T08:02:30;99522.50;;;10.13;100.00
35553;BME280;21656;46.054;13.614;2023-03-14T08:04:55;99518.09;;;10.12;100.00
35553;BME280;21656;46.054;13.614;2023-03-14T08:07:20;99537.03;;;10.20;100.00
35553;BME280;21656;46.054;13.614;2023-03-14T08:09:46;99556.59;;;10.22;100.00
35553;BME280;21656;46.054;13.614;2023-03-14T08:12:11;99560.84;;;10.15;100.00
35553;BME280;21656;46.054;13.614;2023-03-14T08:14:36;99558.00;;;10.16;100.00
35553;BME280;21656;46.054;13.614;2023-03-14T08:17:01;99572.44;;;10.25;100.00
35553;BME280;21656;46.054;13.614;2023-03-14T08:19:27;99568.78;;;10.26;100.00
35553;BME280;21656;46.054;13.614;2023-03-14T08:21:52;99556.88;;;10.19;100.00
35553;BME280;21656;46.054;13.614;2023-03-14T08:24:19;99597.22;;;10.19;100.00
35553;BME280;21656;46.054;13.614;2023-03-14T08:26:45;99583.22;;;10.15;100.00
35553;BME280;21656;46.054;13.614;2023-03-14T08:29:10;99580.38;;;10.17;100.00
35553;BME280;21656;46.054;13.614;2023-03-14T08:31:37;99565.66;;;10.11;100.00
35553;BME280;21656;46.054;13.614;2023-03-14T08:34:03;99573.72;;;10.11;100.00
35553;BME280;21656;46.054;13.614;2023-03-14T08:36:28;99577.69;;;10.17;100.00
35553;BME280;21656;46.054;13.614;2023-03-14T08:38:53;99560.56;;;10.18;100.00
35553;BME280;21656;46.054;13.614;2023-03-14T08:41:19;99563.25;;;10.18;100.00
35553;BME280;21656;46.054;13.614;2023-03-14T08:43:44;99568.47;;;10.10;100.00
35553;BME280;21656;46.054;13.614;2023-03-14T08:46:09;99571.47;;;10.07;100.00
35553;BME280;21656;46.054;13.614;2023-03-14T08:48:35;99558.59;;;10.10;100.00
35553;BME280;21656;46.054;13.614;2023-03-14T08:51:04;99560.84;;;10.15;100.00
35553;BME280;21656;46.054;13.614;2023-03-14T08:53:29;99568.91;;;10.15;100.00
35553;BME280;21656;46.054;13.614;2023-03-14T08:55:54;99548.69;;;10.20;100.00
35553;BME280;21656;46.054;13.614;2023-03-14T08:58:20;99554.06;;;10.20;100.00
35553;BME280;21656;46.054;13.614;2023-03-14T09:00:46;99558.72;;;10.18;100.00
35553;BME280;21656;46.054;13.614;2023-03-14T09:03:11;99560.13;;;10.23;100.00
35553;BME280;21656;46.054;13.614;2023-03-14T09:05:36;99557.59;;;10.21;100.00
35553;BME280;21656;46.054;13.614;2023-03-14T09:08:02;99539.31;;;10.25;100.00
35553;BME280;21656;46.054;13.614;2023-03-14T09:10:27;99530.56;;;10.32;100.00
35553;BME280;21656;46.054;13.614;2023-03-14T09:12:52;99543.28;;;10.30;100.00
35553;BME280;21656;46.054;13.614;2023-03-14T09:15:17;99554.78;;;10.32;100.00
35553;BME280;21656;46.054;13.614;2023-03-14T09:17:43;99551.38;;;10.30;100.00
35553;BME280;21656;46.054;13.614;2023-03-14T09:20:09;99541.59;;;10.29;100.00
35553;BME280;21656;46.054;13.614;2023-03-14T09:22:34;99544.84;;;10.33;100.00
35553;BME280;21656;46.054;13.614;2023-03-14T09:25:01;99537.34;;;10.27;100.00
35553;BME280;21656;46.054;13.614;2023-03-14T09:27:26;99528.88;;;10.31;100.00
35553;BME280;21656;46.054;13.614;2023-03-14T09:29:51;99525.03;;;10.34;100.00
35553;BME280;21656;46.054;13.614;2023-03-14T09:32:16;99527.44;;;10.37;100.00
35553;BME280;21656;46.054;13.614;2023-03-14T09:34:41;99521.03;;;10.38;100.00
35553;BME280;21656;46.054;13.614;2023-03-14T09:37:07;99528.69;;;10.43;100.00
35553;BME280;21656;46.054;13.614;2023-03-14T09:39:32;99535.78;;;10.44;100.00
35553;BME280;21656;46.054;13.614;2023-03-14T09:41:57;99540.88;;;10.47;100.00
35553;BME280;21656;46.054;13.614;2023-03-14T09:44:29;99527.56;;;10.45;100.00
35553;BME280;21656;46.054;13.614;2023-03-14T09:46:56;99527.44;;;10.47;100.00
35553;BME280;21656;46.054;13.614;2023-03-14T09:49:27;99530.13;;;10.47;100.00
35553;BME280;21656;46.054;13.614;2023-03-14T09:51:54;99523.47;;;10.51;100.00
35553;BME280;21656;46.054;13.614;2023-03-14T09:56:48;99533.22;;;10.42;100.00
35553;BME280;21656;46.054;13.614;2023-03-14T09:59:13;99524.16;;;10.43;100.00
35553;BME280;21656;46.054;13.614;2023-03-14T10:01:39;99518.75;;;10.53;100.00
35553;BME280;21656;46.054;13.614;2023-03-14T10:04:07;99513.34;;;10.62;100.00
35553;BME280;21656;46.054;13.614;2023-03-14T10:06:35;99520.28;;;10.65;100.00
35553;BME280;21656;46.054;13.614;2023-03-14T10:09:00;99525.44;;;10.58;100.00
35553;BME280;21656;46.054;13.614;2023-03-14T10:11:25;99528.66;;;10.72;100.00
35553;BME280;21656;46.054;13.614;2023-03-14T10:14:04;99532.59;;;10.77;100.00
35553;BME280;21656;46.054;13.614;2023-03-14T10:16:31;99511.03;;;10.87;100.00
35553;BME280;21656;46.054;13.614;2023-03-14T10:19:04;99501.97;;;10.78;100.00
35553;BME280;21656;46.054;13.614;2023-03-14T10:21:30;99504.84;;;10.67;100.00
35553;BME280;21656;46.054;13.614;2023-03-14T10:24:07;99498.63;;;10.57;100.00
35553;BME280;21656;46.054;13.614;2023-03-14T10:26:33;99496.78;;;10.57;100.00
35553;BME280;21656;46.054;13.614;2023-03-14T10:29:17;99500.06;;;10.61;100.00
35553;BME280;21656;46.054;13.614;2023-03-14T10:34:21;99489.81;;;10.74;100.00
35553;BME280;21656;46.054;13.614;2023-03-14T10:36:51;99498.41;;;10.78;100.00
35553;BME280;21656;46.054;13.614;2023-03-14T10:39:24;99502.13;;;10.77;100.00
35553;BME280;21656;46.054;13.614;2023-03-14T10:42:01;99483.81;;;10.80;100.00
35553;BME280;21656;46.054;13.614;2023-03-14T10:44:28;99498.25;;;10.89;100.00
35553;BME280;21656;46.054;13.614;2023-03-14T10:46:58;99500.25;;;10.87;100.00
35553;BME280;21656;46.054;13.614;2023-03-14T10:49:26;99492.31;;;10.85;100.00
35553;BME280;21656;46.054;13.614;2023-03-14T10:51:53;99478.09;;;10.93;100.00
35553;BME280;21656;46.054;13.614;2023-03-14T10:54:22;99467.31;;;10.93;100.00
35553;BME280;21656;46.054;13.614;2023-03-14T10:56:58;99466.59;;;10.91;100.00
35553;BME280;21656;46.054;13.614;2023-03-14T10:59:24;99478.41;;;10.90;100.00
35553;BME280;21656;46.054;13.614;2023-03-14T11:01:55;99488.91;;;10.83;100.00
35553;BME280;21656;46.054;13.614;2023-03-14T11:06:56;99468.72;;;10.97;100.00
35553;BME280;21656;46.054;13.614;2023-03-14T11:11:54;99481.03;;;11.00;100.00
35553;BME280;21656;46.054;13.614;2023-03-14T11:14:28;99454.94;;;11.00;100.00
35553;BME280;21656;46.054;13.614;2023-03-14T11:17:41;99461.09;;;10.93;100.00
35553;BME280;21656;46.054;13.614;2023-03-14T11:20:02;99454.41;;;10.97;100.00
35553;BME280;21656;46.054;13.614;2023-03-14T11:25:07;99460.38;;;10.91;100.00
35553;BME280;21656;46.054;13.614;2023-03-14T11:27:41;99462.78;;;10.94;100.00
35553;BME280;21656;46.054;13.614;2023-03-14T11:30:21;99455.41;;;10.96;100.00
35553;BME280;21656;46.054;13.614;2023-03-14T11:35:28;99440.38;;;10.93;100.00
35553;BME280;21656;46.054;13.614;2023-03-14T11:38:16;99433.84;;;10.96;100.00
35553;BME280;21656;46.054;13.614;2023-03-14T11:40:43;99435.38;;;10.98;100.00
35553;BME280;21656;46.054;13.614;2023-03-14T11:43:17;99421.91;;;10.98;100.00
35553;BME280;21656;46.054;13.614;2023-03-14T11:45:45;99407.16;;;11.02;100.00
35553;BME280;21656;46.054;13.614;2023-03-14T11:50:46;99405.88;;;11.06;100.00
35553;BME280;21656;46.054;13.614;2023-03-14T11:53:15;99410.16;;;10.99;100.00
35553;BME280;21656;46.054;13.614;2023-03-14T11:55:42;99392.53;;;11.05;100.00
35553;BME280;21656;46.054;13.614;2023-03-14T11:58:13;99377.53;;;11.02;100.00
35553;BME280;21656;46.054;13.614;2023-03-14T12:00:40;99371.75;;;10.97;100.00
35553;BME280;21656;46.054;13.614;2023-03-14T12:03:13;99356.81;;;11.03;100.00
35553;BME280;21656;46.054;13.614;2023-03-14T12:10:52;99339.81;;;10.84;100.00
35553;BME280;21656;46.054;13.614;2023-03-14T12:13:18;99345.50;;;10.81;100.00
35553;BME280;21656;46.054;13.614;2023-03-14T12:15:54;99349.56;;;10.85;100.00
35553;BME280;21656;46.054;13.614;2023-03-14T12:18:27;99350.19;;;10.79;100.00
35553;BME280;21656;46.054;13.614;2023-03-14T12:21:02;99344.22;;;10.76;100.00
35553;BME280;21656;46.054;13.614;2023-03-14T12:23:34;99329.34;;;10.81;100.00
35553;BME280;21656;46.054;13.614;2023-03-14T12:28:33;99312.41;;;10.71;100.00
35553;BME280;21656;46.054;13.614;2023-03-14T12:31:31;99307.56;;;10.75;100.00
35553;BME280;21656;46.054;13.614;2023-03-14T12:33:44;99302.56;;;10.80;100.00
35553;BME280;21656;46.054;13.614;2023-03-14T12:36:18;99301.84;;;10.78;100.00
35553;BME280;21656;46.054;13.614;2023-03-14T12:43:50;99283.56;;;10.81;100.00
35553;BME280;21656;46.054;13.614;2023-03-14T12:46:20;99284.53;;;10.80;100.00
35553;BME280;21656;46.054;13.614;2023-03-14T12:48:46;99290.78;;;10.81;100.00
35553;BME280;21656;46.054;13.614;2023-03-14T12:51:13;99299.84;;;10.80;100.00
35553;BME280;21656;46.054;13.614;2023-03-14T12:53:50;99295.63;;;10.77;100.00
35553;BME280;21656;46.054;13.614;2023-03-14T13:01:26;99273.00;;;10.70;100.00
35553;BME280;21656;46.054;13.614;2023-03-14T13:11:54;99268.69;;;10.77;100.00
35553;BME280;21656;46.054;13.614;2023-03-14T13:14:19;99284.53;;;10.80;100.00
35553;BME280;21656;46.054;13.614;2023-03-14T13:16:46;99299.59;;;10.73;100.00
35553;BME280;21656;46.054;13.614;2023-03-14T13:19:15;99307.16;;;10.70;100.00
35553;BME280;21656;46.054;13.614;2023-03-14T13:21:42;99311.78;;;10.77;100.00
35553;BME280;21656;46.054;13.614;2023-03-14T13:24:20;99292.94;;;10.77;100.00
35553;BME280;21656;46.054;13.614;2023-03-14T13:26:45;99296.16;;;10.81;100.00
35553;BME280;21656;46.054;13.614;2023-03-14T13:31:38;99303.41;;;10.80;100.00
35553;BME280;21656;46.054;13.614;2023-03-14T13:34:09;99313.47;;;10.78;100.00
35553;BME280;21656;46.054;13.614;2023-03-14T13:36:35;99312.63;;;10.78;100.00
35553;BME280;21656;46.054;13.614;2023-03-14T13:39:00;99324.63;;;10.83;100.00
35553;BME280;21656;46.054;13.614;2023-03-14T13:41:27;99313.19;;;10.81;100.00
35553;BME280;21656;46.054;13.614;2023-03-14T13:43:57;99313.19;;;10.81;100.00
35553;BME280;21656;46.054;13.614;2023-03-14T13:46:24;99312.16;;;10.82;100.00
35553;BME280;21656;46.054;13.614;2023-03-14T13:48:51;99306.66;;;10.84;100.00
35553;BME280;21656;46.054;13.614;2023-03-14T13:51:18;99296.53;;;10.86;100.00
35553;BME280;21656;46.054;13.614;2023-03-14T13:53:46;99300.09;;;10.87;100.00
35553;BME280;21656;46.054;13.614;2023-03-14T13:56:12;99301.09;;;10.85;100.00
35553;BME280;21656;46.054;13.614;2023-03-14T13:58:38;99298.09;;;10.89;100.00
35553;BME280;21656;46.054;13.614;2023-03-14T14:01:05;99299.63;;;10.91;100.00
35553;BME280;21656;46.054;13.614;2023-03-14T14:03:32;99307.03;;;10.89;100.00
35553;BME280;21656;46.054;13.614;2023-03-14T14:05:58;99310.72;;;10.88;100.00
35553;BME280;21656;46.054;13.614;2023-03-14T14:08:24;99309.56;;;10.91;100.00
35553;BME280;21656;46.054;13.614;2023-03-14T14:10:50;99307.56;;;10.93;100.00
35553;BME280;21656;46.054;13.614;2023-03-14T14:13:18;99308.00;;;10.88;100.00
35553;BME280;21656;46.054;13.614;2023-03-14T14:15:46;99314.56;;;10.85;100.00
35553;BME280;21656;46.054;13.614;2023-03-14T14:18:14;99309.47;;;10.82;100.00
35553;BME280;21656;46.054;13.614;2023-03-14T14:20:41;99306.72;;;10.74;100.00
35553;BME280;21656;46.054;13.614;2023-03-14T14:23:41;99302.31;;;10.73;100.00
35553;BME280;21656;46.054;13.614;2023-03-14T14:25:59;99305.31;;;10.70;100.00
35553;BME280;21656;46.054;13.614;2023-03-14T14:28:32;99301.91;;;10.68;100.00
35553;BME280;21656;46.054;13.614;2023-03-14T14:33:44;99299.06;;;10.70;100.00
35553;BME280;21656;46.054;13.614;2023-03-14T14:38:56;99311.69;;;10.69;100.00
35553;BME280;21656;46.054;13.614;2023-03-14T14:41:22;99332.75;;;10.56;100.00
35553;BME280;21656;46.054;13.614;2023-03-14T14:43:51;99334.44;;;10.57;100.00
35553;BME280;21656;46.054;13.614;2023-03-14T14:46:17;99337.13;;;10.57;100.00
35553;BME280;21656;46.054;13.614;2023-03-14T14:48:42;99332.44;;;10.59;100.00
35553;BME280;21656;46.054;13.614;2023-03-14T14:51:08;99335.13;;;10.59;100.00
35553;BME280;21656;46.054;13.614;2023-03-14T14:53:37;99329.75;;;10.59;100.00
35553;BME280;21656;46.054;13.614;2023-03-14T14:56:05;99324.69;;;10.56;100.00
35553;BME280;21656;46.054;13.614;2023-03-14T14:58:35;99327.75;;;10.61;100.00
35553;BME280;21656;46.054;13.614;2023-03-14T15:01:22;99319.53;;;10.62;100.00
35553;BME280;21656;46.054;13.614;2023-03-14T15:03:49;99301.53;;;10.63;100.00
35553;BME280;21656;46.054;13.614;2023-03-14T15:06:15;99308.81;;;10.53;100.00
35553;BME280;21656;46.054;13.614;2023-03-14T15:08:42;99297.19;;;10.52;100.00
35553;BME280;21656;46.054;13.614;2023-03-14T15:11:09;99300.91;;;10.51;100.00
35553;BME280;21656;46.054;13.614;2023-03-14T15:13:40;99295.34;;;10.53;100.00
35553;BME280;21656;46.054;13.614;2023-03-14T15:16:08;99302.03;;;10.49;100.00
35553;BME280;21656;46.054;13.614;2023-03-14T15:18:33;99293.75;;;10.60;100.00
35553;BME280;21656;46.054;13.614;2023-03-14T15:20:59;99285.13;;;10.56;100.00
35553;BME280;21656;46.054;13.614;2023-03-14T15:23:25;99287.84;;;10.56;100.00
35553;BME280;21656;46.054;13.614;2023-03-14T15:25:50;99284.56;;;10.53;100.00
35553;BME280;21656;46.054;13.614;2023-03-14T15:28:16;99284.19;;;10.48;100.00
35553;BME280;21656;46.054;13.614;2023-03-14T15:30:42;99281.66;;;10.46;100.00
35553;BME280;21656;46.054;13.614;2023-03-14T15:33:07;99278.41;;;10.43;100.00
35553;BME280;21656;46.054;13.614;2023-03-14T15:35:34;99276.56;;;10.43;100.00
35553;BME280;21656;46.054;13.614;2023-03-14T15:37:59;99276.31;;;10.36;100.00
35553;BME280;21656;46.054;13.614;2023-03-14T15:40:25;99269.53;;;10.32;100.00
35553;BME280;21656;46.054;13.614;2023-03-14T15:42:50;99264.03;;;10.24;100.00
35553;BME280;21656;46.054;13.614;2023-03-14T15:45:16;99269.28;;;10.26;100.00
35553;BME280;21656;46.054;13.614;2023-03-14T15:47:41;99261.78;;;10.19;100.00
35553;BME280;21656;46.054;13.614;2023-03-14T15:50:08;99268.19;;;10.18;100.00
35553;BME280;21656;46.054;13.614;2023-03-14T15:52:35;99253.50;;;10.13;100.00
35553;BME280;21656;46.054;13.614;2023-03-14T15:55:00;99252.34;;;10.15;100.00
35553;BME280;21656;46.054;13.614;2023-03-14T15:57:25;99258.00;;;10.12;100.00
35553;BME280;21656;46.054;13.614;2023-03-14T15:59:51;99251.34;;;10.16;100.00
35553;BME280;21656;46.054;13.614;2023-03-14T16:02:16;99253.41;;;10.23;100.00
35553;BME280;21656;46.054;13.614;2023-03-14T16:04:41;99245.34;;;10.23;100.00
35553;BME280;21656;46.054;13.614;2023-03-14T16:07:07;99242.81;;;10.21;100.00
35553;BME280;21656;46.054;13.614;2023-03-14T16:09:32;99240.84;;;10.23;100.00
35553;BME280;21656;46.054;13.614;2023-03-14T16:11:57;99252.34;;;10.15;100.00
35553;BME280;21656;46.054;13.614;2023-03-14T16:14:22;99243.88;;;10.10;100.00
35553;BME280;21656;46.054;13.614;2023-03-14T16:16:48;99240.47;;;10.08;100.00
35553;BME280;21656;46.054;13.614;2023-03-14T16:19:13;99237.63;;;10.10;100.00
35553;BME280;21656;46.054;13.614;2023-03-14T16:21:39;99242.03;;;10.11;100.00
35553;BME280;21656;46.054;13.614;2023-03-14T16:24:04;99241.38;;;9.99;100.00
35553;BME280;21656;46.054;13.614;2023-03-14T16:26:31;99234.88;;;9.92;100.00
35553;BME280;21656;46.054;13.614;2023-03-14T16:28:59;99247.91;;;9.87;100.00
35553;BME280;21656;46.054;13.614;2023-03-14T16:31:24;99243.38;;;9.87;100.00
35553;BME280;21656;46.054;13.614;2023-03-14T16:33:50;99245.94;;;9.89;100.00
35553;BME280;21656;46.054;13.614;2023-03-14T16:36:15;99242.09;;;9.91;100.00
35553;BME280;21656;46.054;13.614;2023-03-14T16:38:41;99241.66;;;9.96;100.00
35553;BME280;21656;46.054;13.614;2023-03-14T16:41:17;99231.75;;;9.96;100.00
35553;BME280;21656;46.054;13.614;2023-03-14T16:43:43;99233.19;;;9.91;100.00
35553;BME280;21656;46.054;13.614;2023-03-14T16:46:14;99237.03;;;9.88;100.00
35553;BME280;21656;46.054;13.614;2023-03-14T16:48:40;99236.31;;;9.86;100.00
35553;BME280;21656;46.054;13.614;2023-03-14T16:51:06;99237.34;;;9.85;100.00
35553;BME280;21656;46.054;13.614;2023-03-14T16:53:31;99236.94;;;9.80;100.00
35553;BME280;21656;46.054;13.614;2023-03-14T16:55:57;99236.06;;;9.80;100.00
35553;BME280;21656;46.054;13.614;2023-03-14T16:58:23;99231.81;;;9.77;100.00
35553;BME280;21656;46.054;13.614;2023-03-14T17:00:48;99226.03;;;9.72;100.00
35553;BME280;21656;46.054;13.614;2023-03-14T17:03:14;99242.03;;;9.73;100.00
35553;BME280;21656;46.054;13.614;2023-03-14T17:05:46;99246.56;;;9.73;100.00
35553;BME280;21656;46.054;13.614;2023-03-14T17:08:12;99246.16;;;9.68;100.00
35553;BME280;21656;46.054;13.614;2023-03-14T17:10:37;99244.84;;;9.72;100.00
35553;BME280;21656;46.054;13.614;2023-03-14T17:13:02;99243.59;;;9.66;100.00
35553;BME280;21656;46.054;13.614;2023-03-14T17:15:28;99248.25;;;9.74;100.00
35553;BME280;21656;46.054;13.614;2023-03-14T17:17:53;99254.78;;;9.71;100.00
35553;BME280;21656;46.054;13.614;2023-03-14T17:20:18;99256.63;;;9.61;100.00
35553;BME280;21656;46.054;13.614;2023-03-14T17:22:44;99261.78;;;9.54;100.00
35553;BME280;21656;46.054;13.614;2023-03-14T17:25:09;99256.41;;;9.54;100.00
35553;BME280;21656;46.054;13.614;2023-03-14T17:27:34;99266.13;;;9.55;100.00
35553;BME280;21656;46.054;13.614;2023-03-14T17:30:00;99264.44;;;9.54;100.00
35553;BME280;21656;46.054;13.614;2023-03-14T17:32:25;99272.50;;;9.54;100.00
35553;BME280;21656;46.054;13.614;2023-03-14T17:34:50;99272.94;;;9.60;100.00
35553;BME280;21656;46.054;13.614;2023-03-14T17:37:16;99275.44;;;9.61;100.00
35553;BME280;21656;46.054;13.614;2023-03-14T17:39:41;99285.63;;;9.67;100.00
35553;BME280;21656;46.054;13.614;2023-03-14T17:42:06;99288.34;;;9.58;100.00
35553;BME280;21656;46.054;13.614;2023-03-14T17:44:32;99292.59;;;9.60;100.00
35553;BME280;21656;46.054;13.614;2023-03-14T17:46:57;99297.78;;;9.62;100.00
35553;BME280;21656;46.054;13.614;2023-03-14T17:49:23;99303.75;;;9.65;100.00
35553;BME280;21656;46.054;13.614;2023-03-14T17:51:48;99303.47;;;9.59;100.00
35553;BME280;21656;46.054;13.614;2023-03-14T17:54:14;99307.16;;;9.58;100.00
35553;BME280;21656;46.054;13.614;2023-03-14T17:56:39;99311.41;;;9.60;100.00
35553;BME280;21656;46.054;13.614;2023-03-14T17:59:08;99303.63;;;9.57;100.00
35553;BME280;21656;46.054;13.614;2023-03-14T18:01:34;99313.25;;;9.60;100.00
35553;BME280;21656;46.054;13.614;2023-03-14T18:03:59;99308.13;;;9.57;100.00
35553;BME280;21656;46.054;13.614;2023-03-14T18:06:25;99314.50;;;9.55;100.00
35553;BME280;21656;46.054;13.614;2023-03-14T18:08:54;99315.38;;;9.46;100.00
35553;BME280;21656;46.054;13.614;2023-03-14T18:11:20;99319.47;;;9.50;100.00
35553;BME280;21656;46.054;13.614;2023-03-14T18:13:45;99317.19;;;9.46;100.00
35553;BME280;21656;46.054;13.614;2023-03-14T18:16:11;99315.25;;;9.38;100.00
35553;BME280;21656;46.054;13.614;2023-03-14T18:18:40;99315.09;;;9.40;100.00
35553;BME280;21656;46.054;13.614;2023-03-14T18:21:06;99325.28;;;9.36;100.00
35553;BME280;21656;46.054;13.614;2023-03-14T18:23:32;99324.84;;;9.31;100.00
35553;BME280;21656;46.054;13.614;2023-03-14T18:25:57;99321.91;;;9.24;100.00
35553;BME280;21656;46.054;13.614;2023-03-14T18:28:23;99325.13;;;9.28;100.00
35553;BME280;21656;46.054;13.614;2023-03-14T18:30:48;99318.75;;;9.29;100.00
35553;BME280;21656;46.054;13.614;2023-03-14T18:33:19;99319.91;;;9.26;100.00
35553;BME280;21656;46.054;13.614;2023-03-14T18:35:46;99329.09;;;9.24;100.00
35553;BME280;21656;46.054;13.614;2023-03-14T18:38:12;99325.44;;;9.25;100.00
35553;BME280;21656;46.054;13.614;2023-03-14T18:40:37;99334.47;;;9.24;100.00
35553;BME280;21656;46.054;13.614;2023-03-14T18:43:02;99338.56;;;9.18;100.00
35553;BME280;21656;46.054;13.614;2023-03-14T18:45:29;99341.84;;;9.22;100.00
35553;BME280;21656;46.054;13.614;2023-03-14T18:47:55;99345.38;;;9.22;100.00
35553;BME280;21656;46.054;13.614;2023-03-14T18:50:20;99342.38;;;9.16;100.00
35553;BME280;21656;46.054;13.614;2023-03-14T18:52:46;99337.44;;;9.11;100.00
35553;BME280;21656;46.054;13.614;2023-03-14T18:55:11;99336.03;;;9.07;100.00
35553;BME280;21656;46.054;13.614;2023-03-14T18:57:36;99334.19;;;9.07;100.00
35553;BME280;21656;46.054;13.614;2023-03-14T19:00:02;99339.28;;;9.10;100.00
35553;BME280;21656;46.054;13.614;2023-03-14T19:02:29;99335.88;;;9.08;100.00
35553;BME280;21656;46.054;13.614;2023-03-14T19:04:54;99342.25;;;9.07;100.00
35553;BME280;21656;46.054;13.614;2023-03-14T19:07:19;99341.41;;;9.17;100.00
35553;BME280;21656;46.054;13.614;2023-03-14T19:09:47;99338.13;;;9.13;100.00
35553;BME280;21656;46.054;13.614;2023-03-14T19:12:13;99335.75;;;9.10;100.00
35553;BME280;21656;46.054;13.614;2023-03-14T19:14:38;99330.34;;;9.00;100.00
35553;BME280;21656;46.054;13.614;2023-03-14T19:19:53;99313.53;;;8.98;100.00
35553;BME280;21656;46.054;13.614;2023-03-14T19:22:20;99317.34;;;8.96;100.00
35553;BME280;21656;46.054;13.614;2023-03-14T19:24:46;99317.50;;;8.94;100.00
35553;BME280;21656;46.054;13.614;2023-03-14T19:27:11;99315.25;;;8.99;100.00
35553;BME280;21656;46.054;13.614;2023-03-14T19:29:36;99318.63;;;8.92;100.00
35553;BME280;21656;46.054;13.614;2023-03-14T19:32:06;99311.00;;;8.87;100.00
35553;BME280;21656;46.054;13.614;2023-03-14T19:34:31;99312.13;;;8.94;100.00
35553;BME280;21656;46.054;13.614;2023-03-14T19:36:57;99312.69;;;8.88;100.00
35553;BME280;21656;46.054;13.614;2023-03-14T19:39:22;99318.03;;;8.88;100.00
35553;BME280;21656;46.054;13.614;2023-03-14T19:41:47;99311.56;;;8.90;100.00
35553;BME280;21656;46.054;13.614;2023-03-14T19:44:12;99300.69;;;8.92;100.00
35553;BME280;21656;46.054;13.614;2023-03-14T19:46:38;99297.69;;;8.85;100.00
35553;BME280;21656;46.054;13.614;2023-03-14T19:49:03;99300.38;;;8.85;100.00
35553;BME280;21656;46.054;13.614;2023-03-14T19:51:29;99305.75;;;8.85;100.00
35553;BME280;21656;46.054;13.614;2023-03-14T19:53:56;99300.69;;;8.92;100.00
35553;BME280;21656;46.054;13.614;2023-03-14T19:56:25;99303.50;;;8.90;100.00
35553;BME280;21656;46.054;13.614;2023-03-14T19:58:51;99307.03;;;8.91;100.00
35553;BME280;21656;46.054;13.614;2023-03-14T20:01:16;99317.50;;;8.94;100.00
35553;BME280;21656;46.054;13.614;2023-03-14T20:03:42;99315.38;;;8.98;100.00
35553;BME280;21656;46.054;13.614;2023-03-14T20:06:08;99324.28;;;8.98;100.00
35553;BME280;21656;46.054;13.614;2023-03-14T20:08:33;99322.31;;;9.00;100.00
35553;BME280;21656;46.054;13.614;2023-03-14T20:10:59;99309.19;;;9.07;100.00
35553;BME280;21656;46.054;13.614;2023-03-14T20:13:27;99326.25;;;9.06;100.00
35553;BME280;21656;46.054;13.614;2023-03-14T20:15:52;99323.56;;;9.06;100.00
35553;BME280;21656;46.054;13.614;2023-03-14T20:18:17;99325.72;;;9.12;100.00
35553;BME280;21656;46.054;13.614;2023-03-14T20:20:43;99324.56;;;9.05;100.00
35553;BME280;21656;46.054;13.614;2023-03-14T20:23:08;99332.75;;;9.03;100.00
35553;BME280;21656;46.054;13.614;2023-03-14T20:25:33;99336.84;;;8.88;100.00
35553;BME280;21656;46.054;13.614;2023-03-14T20:27:59;99338.66;;;8.78;100.00
35553;BME280;21656;46.054;13.614;2023-03-14T20:30:25;99342.47;;;8.75;100.00
35553;BME280;21656;46.054;13.614;2023-03-14T20:32:51;99341.91;;;8.72;100.00